createdAt,value
2022-08-20T00:01:17.373Z,57.33
2022-08-20T00:03:50.131Z,58.25
2022-08-20T00:06:24.343Z,59.05
2022-08-20T00:08:52.451Z,58.89
2022-08-20T00:11:24.311Z,59.30
2022-08-20T00:13:56.124Z,59.58
2022-08-20T00:16:25.923Z,59.63
2022-08-20T00:18:54.287Z,59.43
2022-08-20T00:21:23.319Z,58.61
2022-08-20T00:23:54.588Z,58.86
2022-08-20T00:26:24.437Z,59.20
2022-08-20T00:28:52.193Z,59.82
2022-08-20T00:31:22.176Z,59.77
2022-08-20T00:33:50.010Z,60.81
2022-08-20T00:36:18.543Z,62.38
2022-08-20T00:38:47.692Z,63.18
2022-08-20T00:41:24.618Z,63.11
2022-08-20T00:44:07.083Z,62.08
2022-08-20T00:46:35.467Z,61.76
2022-08-20T00:49:05.807Z,61.64
2022-08-20T00:51:35.502Z,61.77
2022-08-20T00:54:07.792Z,62.15
2022-08-20T00:56:36.341Z,62.50
2022-08-20T00:59:07.683Z,62.95
2022-08-20T01:01:40.678Z,63.43
2022-08-20T01:04:24.867Z,64.39
2022-08-20T01:06:53.079Z,64.32
2022-08-20T01:09:49.426Z,64.01
2022-08-20T01:12:09.894Z,64.48
2022-08-20T01:14:44.817Z,63.91
2022-08-20T01:17:18.126Z,63.77
2022-08-20T01:19:50.382Z,63.67
2022-08-20T01:22:51.116Z,63.63
2022-08-20T01:25:23.936Z,63.61
2022-08-20T01:27:55.416Z,63.81
2022-08-20T01:30:24.525Z,63.55
2022-08-20T01:32:52.267Z,63.68
2022-08-20T01:35:21.837Z,65.04
2022-08-20T01:37:49.638Z,64.69
2022-08-20T01:40:30.865Z,64.71
2022-08-20T01:43:00.119Z,65.04
2022-08-20T01:45:30.406Z,64.99
2022-08-20T01:47:58.987Z,65.51
2022-08-20T01:50:29.264Z,65.41
2022-08-20T01:53:00.814Z,65.77
2022-08-20T01:55:28.374Z,65.27
2022-08-20T01:57:56.475Z,65.32
2022-08-20T02:00:25.819Z,66.05
2022-08-20T02:02:53.787Z,66.45
2022-08-20T02:05:21.998Z,66.59
2022-08-20T02:07:49.776Z,66.99
2022-08-20T02:10:18.210Z,66.71
2022-08-20T02:12:46.002Z,67.31
2022-08-20T02:15:14.213Z,67.25
2022-08-20T02:17:43.826Z,67.43
2022-08-20T02:20:14.032Z,67.68
2022-08-20T02:22:50.178Z,69.13
2022-08-20T02:25:23.275Z,68.78
2022-08-20T02:27:52.484Z,69.00
2022-08-20T02:30:27.902Z,68.58
2022-08-20T02:32:58.331Z,68.48
2022-08-20T02:35:26.184Z,67.91
2022-08-20T02:37:54.305Z,67.74
2022-08-20T02:40:27.354Z,67.30
2022-08-20T02:42:59.535Z,67.43
2022-08-20T02:45:27.941Z,67.65
2022-08-20T02:47:58.960Z,67.67
2022-08-20T02:50:27.797Z,67.62
2022-08-20T02:52:55.640Z,68.71
2022-08-20T02:55:27.136Z,69.02
2022-08-20T02:57:58.559Z,68.60
2022-08-20T03:00:27.897Z,68.82
2022-08-20T03:02:57.196Z,68.86
2022-08-20T03:05:24.880Z,69.44
2022-08-20T03:07:55.380Z,69.72
2022-08-20T03:10:24.710Z,69.33
2022-08-20T03:12:53.550Z,69.83
2022-08-20T03:15:21.806Z,69.79
2022-08-20T03:17:49.609Z,70.03
2022-08-20T03:20:23.791Z,69.96
2022-08-20T03:22:52.730Z,69.96
2022-08-20T03:25:20.986Z,70.03
2022-08-20T03:27:54.450Z,69.93
2022-08-20T03:30:24.969Z,70.31
2022-08-20T03:32:52.813Z,70.82
2022-08-20T03:35:24.435Z,70.74
2022-08-20T03:37:52.224Z,70.89
2022-08-20T03:40:24.866Z,70.48
2022-08-20T03:42:53.610Z,70.63
2022-08-20T03:45:22.689Z,70.19
2022-08-20T03:47:51.680Z,70.08
2022-08-20T03:50:23.113Z,70.14
2022-08-20T03:52:51.952Z,70.49
2022-08-20T03:55:19.982Z,70.82
2022-08-20T03:57:50.597Z,71.06
2022-08-20T04:00:22.765Z,72.06
2022-08-20T04:02:50.542Z,72.30
2022-08-20T04:05:18.388Z,71.99
2022-08-20T04:07:47.574Z,71.74
2022-08-20T04:10:15.440Z,71.75
2022-08-20T04:12:52.644Z,71.74
2022-08-20T04:15:24.589Z,71.49
2022-08-20T04:17:52.748Z,71.91
2022-08-20T04:20:23.871Z,71.66
2022-08-20T04:22:58.420Z,71.59
2022-08-20T04:25:28.666Z,71.22
2022-08-20T04:27:58.042Z,71.57
2022-08-20T04:30:26.637Z,70.88
2022-08-20T04:32:54.393Z,71.08
2022-08-20T04:35:24.602Z,71.29
2022-08-20T04:38:00.826Z,71.96
2022-08-20T04:40:46.653Z,72.05
2022-08-20T04:43:14.511Z,71.81
2022-08-20T04:45:42.621Z,72.25
2022-08-20T04:48:14.959Z,72.38
2022-08-20T04:50:44.907Z,72.45
2022-08-20T04:53:16.733Z,71.94
2022-08-20T04:55:46.290Z,71.88
2022-08-20T04:58:18.095Z,71.70
2022-08-20T05:00:48.390Z,71.81
2022-08-20T05:03:16.636Z,71.43
2022-08-20T05:05:46.547Z,71.31
2022-08-20T05:08:20.098Z,70.74
2022-08-20T05:10:48.560Z,70.52
2022-08-20T05:13:16.655Z,70.17
2022-08-20T05:15:45.544Z,69.63
2022-08-20T05:18:13.404Z,69.37
2022-08-20T05:20:42.996Z,68.55
2022-08-20T05:23:12.709Z,68.09
2022-08-20T05:25:43.372Z,68.23
2022-08-20T05:28:12.787Z,67.72
2022-08-20T05:30:43.397Z,67.85
2022-08-20T05:33:11.936Z,67.29
2022-08-20T05:35:40.404Z,67.45
2022-08-20T05:38:10.423Z,67.14
2022-08-20T05:40:40.312Z,67.31
2022-08-20T05:43:09.787Z,67.44
2022-08-20T05:45:39.192Z,67.43
2022-08-20T05:48:08.088Z,67.17
2022-08-20T05:50:36.474Z,65.21
2022-08-20T05:53:04.652Z,64.23
2022-08-20T05:55:32.386Z,64.02
2022-08-20T05:58:01.054Z,63.20
2022-08-20T06:00:30.889Z,62.38
2022-08-20T06:03:15.951Z,62.19
2022-08-20T06:05:43.654Z,62.02
2022-08-20T06:08:12.287Z,61.44
2022-08-20T06:10:42.676Z,61.30
2022-08-20T06:13:14.043Z,60.34
2022-08-20T06:15:43.356Z,59.69
2022-08-20T06:18:27.883Z,60.42
2022-08-20T06:20:56.664Z,60.41
2022-08-20T06:23:25.330Z,59.51
2022-08-20T06:25:53.303Z,59.52
2022-08-20T06:28:21.186Z,58.85
2022-08-20T06:30:50.264Z,58.24
2022-08-20T06:33:18.072Z,58.59
2022-08-20T06:35:45.910Z,58.81
2022-08-20T06:38:14.670Z,59.13
2022-08-20T06:40:42.798Z,58.91
2022-08-20T06:43:10.534Z,58.90
2022-08-20T06:45:38.897Z,58.63
2022-08-20T06:48:15.069Z,58.33
2022-08-20T06:50:47.284Z,57.62
2022-08-20T06:53:18.013Z,57.55
2022-08-20T06:55:48.616Z,56.68
2022-08-20T06:58:36.276Z,55.77
2022-08-20T07:01:09.625Z,55.18
2022-08-20T07:03:54.181Z,54.99
2022-08-20T07:06:25.170Z,54.97
2022-08-20T07:08:52.941Z,55.25
2022-08-20T07:11:27.400Z,54.64
2022-08-20T07:13:56.702Z,54.57
2022-08-20T07:16:24.810Z,54.50
2022-08-20T07:18:55.488Z,54.53
2022-08-20T07:21:23.169Z,53.70
2022-08-20T07:23:50.906Z,53.40
2022-08-20T07:26:18.788Z,52.96
2022-08-20T07:28:46.731Z,52.98
2022-08-20T07:31:32.756Z,53.22
2022-08-20T07:34:04.627Z,52.94
2022-08-20T07:36:33.272Z,52.64
2022-08-20T07:39:05.932Z,51.80
2022-08-20T07:41:34.505Z,52.12
2022-08-20T07:44:02.418Z,52.00
2022-08-20T07:46:31.711Z,51.62
2022-08-20T07:49:00.224Z,51.82
2022-08-20T07:51:29.825Z,51.76
2022-08-20T07:54:00.225Z,51.66
2022-08-20T07:56:28.169Z,51.11
2022-08-20T07:58:59.314Z,50.91
2022-08-20T08:01:30.575Z,51.21
2022-08-20T08:03:58.937Z,51.31
2022-08-20T08:06:29.775Z,50.78
2022-08-20T08:09:01.172Z,50.43
2022-08-20T08:11:29.777Z,49.72
2022-08-20T08:13:57.639Z,50.07
2022-08-20T08:16:25.858Z,49.81
2022-08-20T08:18:56.744Z,50.08
2022-08-20T08:21:25.095Z,49.08
2022-08-20T08:23:53.552Z,49.19
2022-08-20T08:26:22.766Z,47.90
2022-08-20T08:28:51.356Z,48.50
2022-08-20T08:31:19.370Z,48.11
2022-08-20T08:33:47.642Z,49.05
2022-08-20T08:36:16.868Z,48.50
2022-08-20T08:38:46.437Z,48.10
2022-08-20T08:41:18.742Z,48.00
2022-08-20T08:43:51.116Z,48.33
2022-08-20T08:46:22.692Z,46.97
2022-08-20T08:48:53.420Z,46.21
2022-08-20T08:51:27.451Z,46.83
2022-08-20T08:53:57.115Z,46.21
2022-08-20T08:56:26.660Z,45.86
2022-08-20T08:58:56.714Z,45.92
2022-08-20T09:01:53.862Z,45.13
2022-08-20T09:04:14.242Z,45.50
2022-08-20T09:06:43.399Z,45.66
2022-08-20T09:09:19.061Z,44.34
2022-08-20T09:11:50.160Z,44.10
2022-08-20T09:14:19.375Z,43.81
2022-08-20T09:16:52.601Z,42.56
2022-08-20T09:19:21.388Z,42.84
2022-08-20T09:21:49.274Z,43.01
2022-08-20T09:24:17.163Z,42.93
2022-08-20T09:26:45.010Z,43.26
2022-08-20T09:29:12.787Z,43.92
2022-08-20T09:31:42.060Z,43.41
2022-08-20T09:34:09.968Z,43.00
2022-08-20T09:36:37.720Z,42.88
2022-08-20T09:39:05.571Z,42.76
2022-08-20T09:41:33.747Z,42.80
2022-08-20T09:44:02.244Z,43.13
2022-08-20T09:46:30.025Z,42.18
2022-08-20T09:48:59.163Z,42.25
2022-08-20T09:51:27.012Z,41.96
2022-08-20T09:53:55.332Z,41.35
2022-08-20T09:56:25.507Z,43.10
2022-08-20T09:58:57.238Z,41.48
2022-08-20T10:01:27.663Z,41.16
2022-08-20T10:03:55.425Z,41.19
2022-08-20T10:06:24.583Z,40.69
2022-08-20T10:08:52.280Z,41.05
2022-08-20T10:11:20.008Z,40.35
2022-08-20T10:13:48.424Z,39.88
2022-08-20T10:16:16.174Z,39.61
2022-08-20T10:18:43.988Z,39.51
2022-08-20T10:21:11.954Z,39.00
2022-08-20T10:23:41.114Z,39.03
2022-08-20T10:26:09.243Z,38.93
2022-08-20T10:28:37.550Z,38.37
2022-08-20T10:31:08.220Z,38.65
2022-08-20T10:33:36.747Z,38.33
2022-08-20T10:36:08.492Z,39.48
2022-08-20T10:38:37.281Z,38.56
2022-08-20T10:41:07.163Z,37.97
2022-08-20T10:43:35.638Z,37.91
2022-08-20T10:46:04.156Z,37.49
2022-08-20T10:48:32.343Z,36.81
2022-08-20T10:51:00.935Z,37.34
2022-08-20T10:53:28.962Z,37.88
2022-08-20T10:55:58.248Z,37.46
2022-08-20T10:58:30.521Z,37.01
2022-08-20T11:01:08.103Z,37.21
2022-08-20T11:03:35.925Z,36.31
2022-08-20T11:06:04.251Z,36.62
2022-08-20T11:08:34.284Z,36.11
2022-08-20T11:11:04.466Z,36.60
2022-08-20T11:13:33.673Z,35.76
2022-08-20T11:16:02.678Z,35.58
2022-08-20T11:18:30.689Z,35.86
2022-08-20T11:20:59.132Z,35.56
2022-08-20T11:23:27.362Z,35.61
2022-08-20T11:25:55.566Z,35.83
2022-08-20T11:28:31.241Z,35.70
2022-08-20T11:31:01.899Z,35.61
2022-08-20T11:33:29.856Z,34.31
2022-08-20T11:35:57.745Z,34.95
2022-08-20T11:38:25.481Z,35.14
2022-08-20T11:40:53.313Z,34.81
2022-08-20T11:43:20.994Z,34.63
2022-08-20T11:45:50.916Z,34.90
2022-08-20T11:48:20.167Z,34.60
2022-08-20T11:50:48.572Z,35.65
2022-08-20T11:53:16.578Z,35.24
2022-08-20T11:55:44.705Z,35.36
2022-08-20T11:58:13.372Z,34.93
2022-08-20T12:00:41.248Z,33.70
2022-08-20T12:03:11.897Z,34.78
2022-08-20T12:05:42.695Z,35.00
2022-08-20T12:08:27.159Z,34.43
2022-08-20T12:10:55.482Z,33.96
2022-08-20T12:13:25.253Z,34.25
2022-08-20T12:15:59.498Z,34.43
2022-08-20T12:18:29.131Z,33.57
2022-08-20T12:20:58.375Z,33.33
2022-08-20T12:23:26.290Z,33.70
2022-08-20T12:25:54.055Z,34.18
2022-08-20T12:28:25.846Z,34.22
2022-08-20T12:30:53.834Z,34.35
2022-08-20T12:33:21.560Z,34.35
2022-08-20T12:35:49.331Z,33.97
2022-08-20T12:38:18.468Z,33.38
2022-08-20T12:40:46.201Z,34.04
2022-08-20T12:43:13.932Z,33.71
2022-08-20T12:45:41.843Z,33.55
2022-08-20T12:48:12.076Z,33.60
2022-08-20T12:50:42.205Z,33.36
2022-08-20T12:53:10.000Z,33.78
2022-08-20T12:55:39.238Z,33.70
2022-08-20T12:58:10.232Z,33.55
2022-08-20T13:00:41.493Z,33.53
2022-08-20T13:03:12.195Z,33.33
2022-08-20T13:05:40.405Z,34.41
2022-08-20T13:08:08.916Z,33.26
2022-08-20T13:10:44.423Z,33.45
2022-08-20T13:13:12.459Z,33.36
2022-08-20T13:15:40.595Z,33.55
2022-08-20T13:18:08.792Z,33.43
2022-08-20T13:20:38.785Z,32.97
2022-08-20T13:23:06.930Z,32.70
2022-08-20T13:25:34.765Z,31.96
2022-08-20T13:28:05.407Z,31.78
2022-08-20T13:30:35.118Z,31.70
2022-08-20T13:33:03.183Z,31.83
2022-08-20T13:35:31.186Z,32.29
2022-08-20T13:37:58.890Z,33.08
2022-08-20T13:40:26.933Z,32.51
2022-08-20T13:42:54.680Z,32.51
2022-08-20T13:45:23.768Z,32.25
2022-08-20T13:47:54.663Z,32.12
2022-08-20T13:50:24.082Z,32.47
2022-08-20T13:52:51.869Z,32.48
2022-08-20T13:55:22.225Z,32.48
2022-08-20T13:57:50.407Z,31.83
2022-08-20T14:00:21.593Z,31.90
2022-08-20T14:03:00.974Z,32.35
2022-08-20T14:05:29.307Z,32.28
2022-08-20T14:07:57.032Z,31.46
2022-08-20T14:10:31.224Z,31.89
2022-08-20T14:12:59.280Z,31.97
2022-08-20T14:15:27.082Z,32.29
2022-08-20T14:17:56.503Z,31.77
2022-08-20T14:20:32.154Z,31.49
2022-08-20T14:23:01.144Z,31.61
2022-08-20T14:25:30.541Z,32.07
2022-08-20T14:27:58.526Z,31.50
2022-08-20T14:30:28.843Z,31.49
2022-08-20T14:32:57.207Z,31.49
2022-08-20T14:35:26.500Z,31.63
2022-08-20T14:37:55.518Z,32.05
2022-08-20T14:40:24.935Z,32.30
2022-08-20T14:42:53.008Z,32.57
2022-08-20T14:45:21.765Z,32.67
2022-08-20T14:47:53.790Z,32.41
2022-08-20T14:50:24.934Z,32.43
2022-08-20T14:52:53.978Z,32.96
2022-08-20T14:55:24.037Z,33.34
2022-08-20T14:57:52.005Z,33.14
2022-08-20T15:00:21.838Z,33.70
2022-08-20T15:02:49.869Z,33.58
2022-08-20T15:05:18.304Z,33.61
2022-08-20T15:07:48.305Z,33.78
2022-08-20T15:10:21.805Z,33.76
2022-08-20T15:12:49.669Z,33.66
2022-08-20T15:15:18.316Z,33.24
2022-08-20T15:17:48.643Z,33.16
2022-08-20T15:20:20.770Z,33.55
2022-08-20T15:22:49.764Z,34.55
2022-08-20T15:25:22.041Z,35.12
2022-08-20T15:27:50.777Z,35.32
2022-08-20T15:30:20.593Z,35.44
2022-08-20T15:32:54.162Z,35.37
2022-08-20T15:35:23.199Z,35.47
2022-08-20T15:37:51.643Z,36.07
2022-08-20T15:40:30.357Z,36.10
2022-08-20T15:42:58.481Z,36.11
2022-08-20T15:45:26.987Z,36.06
2022-08-20T15:47:57.042Z,36.52
2022-08-20T15:50:50.926Z,36.77
2022-08-20T15:53:22.897Z,37.08
2022-08-20T15:55:57.548Z,36.99
2022-08-20T15:58:30.623Z,36.85
2022-08-20T16:01:23.934Z,37.02
2022-08-20T16:04:11.979Z,37.16
2022-08-20T16:06:40.016Z,36.91
2022-08-20T16:09:25.513Z,37.41
2022-08-20T16:12:02.122Z,37.44
2022-08-20T16:14:36.311Z,37.46
2022-08-20T16:17:07.410Z,37.83
2022-08-20T16:19:40.127Z,37.86
2022-08-20T16:22:08.675Z,38.56
2022-08-20T16:24:36.411Z,38.61
2022-08-20T16:27:13.368Z,38.65
2022-08-20T16:29:47.064Z,38.86
2022-08-20T16:32:21.872Z,38.92
2022-08-20T16:34:53.278Z,39.24
2022-08-20T16:37:25.286Z,39.51
2022-08-20T16:39:57.489Z,39.68
2022-08-20T16:42:36.409Z,40.03
2022-08-20T16:45:06.210Z,40.23
2022-08-20T16:47:36.027Z,40.27
2022-08-20T16:50:06.772Z,40.47
2022-08-20T16:52:34.587Z,40.69
2022-08-20T16:55:02.504Z,40.54
2022-08-20T16:57:31.639Z,40.49
2022-08-20T17:00:07.791Z,40.76
2022-08-20T17:02:35.701Z,40.83
2022-08-20T17:05:06.552Z,41.13
2022-08-20T17:07:43.137Z,41.62
2022-08-20T17:10:16.559Z,41.80
2022-08-20T17:12:45.849Z,42.18
2022-08-20T17:15:21.877Z,42.28
2022-08-20T17:17:49.670Z,42.36
2022-08-20T17:20:20.291Z,42.52
2022-08-20T17:22:49.844Z,42.76
2022-08-20T17:25:20.506Z,42.85
2022-08-20T17:27:50.432Z,42.94
2022-08-20T17:30:25.189Z,43.10
2022-08-20T17:32:58.611Z,43.48
2022-08-20T17:35:36.670Z,43.53
2022-08-20T17:38:06.036Z,43.58
2022-08-20T17:40:41.624Z,44.41
2022-08-20T17:43:12.107Z,43.98
2022-08-20T17:45:44.664Z,44.22
2022-08-20T17:48:15.605Z,44.22
2022-08-20T17:50:44.657Z,44.59
2022-08-20T17:53:23.172Z,44.56
2022-08-20T17:55:54.133Z,44.60
2022-08-20T17:58:28.560Z,44.75
2022-08-20T18:00:56.320Z,45.09
2022-08-20T18:03:26.786Z,44.99
2022-08-20T18:05:59.827Z,45.32
2022-08-20T18:08:38.656Z,45.11
2022-08-20T18:11:16.691Z,45.31
2022-08-20T18:13:56.469Z,45.37
2022-08-20T18:16:30.166Z,45.59
2022-08-20T18:18:59.957Z,45.72
2022-08-20T18:21:45.174Z,45.71
2022-08-20T18:24:14.225Z,46.16
2022-08-20T18:26:46.021Z,46.42
2022-08-20T18:29:17.548Z,46.40
2022-08-20T18:31:48.690Z,46.41
2022-08-20T18:34:17.137Z,46.56
2022-08-20T18:36:55.055Z,46.54
2022-08-20T18:39:27.087Z,47.12
2022-08-20T18:42:01.421Z,46.83
2022-08-20T18:44:37.178Z,47.04
2022-08-20T18:47:07.098Z,47.46
2022-08-20T18:49:36.559Z,47.43
2022-08-20T18:52:13.609Z,47.30
2022-08-20T18:54:43.862Z,47.52
2022-08-20T18:57:20.804Z,47.95
2022-08-20T18:59:55.085Z,47.99
2022-08-20T19:02:26.409Z,48.45
2022-08-20T19:04:55.092Z,48.55
2022-08-20T19:07:48.614Z,48.46
2022-08-20T19:10:49.282Z,48.67
2022-08-20T19:13:45.984Z,49.05
2022-08-20T19:16:20.444Z,49.30
2022-08-20T19:18:51.670Z,49.25
2022-08-20T19:21:20.193Z,49.50
2022-08-20T19:23:49.527Z,49.47
2022-08-20T19:26:25.975Z,49.43
2022-08-20T19:28:58.191Z,49.50
2022-08-20T19:31:30.283Z,50.02
2022-08-20T19:34:04.026Z,49.90
2022-08-20T19:36:47.852Z,49.94
2022-08-20T19:39:18.929Z,50.22
2022-08-20T19:41:50.109Z,50.62
2022-08-20T19:44:27.391Z,50.70
2022-08-20T19:46:57.727Z,50.65
2022-08-20T19:49:31.554Z,50.81
2022-08-20T19:52:11.483Z,51.35
2022-08-20T19:54:46.557Z,51.26
2022-08-20T19:57:14.568Z,51.75
2022-08-20T19:59:52.831Z,52.05
2022-08-20T20:02:25.074Z,52.10
2022-08-20T20:04:55.261Z,52.14
2022-08-20T20:07:29.105Z,51.78
2022-08-20T20:09:58.603Z,51.83
2022-08-20T20:12:26.406Z,52.29
2022-08-20T20:14:55.585Z,52.28
2022-08-20T20:17:28.832Z,52.33
2022-08-20T20:20:00.128Z,52.37
2022-08-20T20:22:28.579Z,52.78
2022-08-20T20:25:08.768Z,52.52
2022-08-20T20:27:38.109Z,53.00
2022-08-20T20:30:09.377Z,52.95
2022-08-20T20:32:45.241Z,53.07
2022-08-20T20:35:26.154Z,53.27
2022-08-20T20:37:59.628Z,53.29
2022-08-20T20:40:30.446Z,53.72
2022-08-20T20:43:05.618Z,53.71
2022-08-20T20:45:36.470Z,53.70
2022-08-20T20:48:16.377Z,53.98
2022-08-20T20:50:44.431Z,53.99
2022-08-20T20:53:13.018Z,53.85
2022-08-20T20:55:41.886Z,54.21
2022-08-20T20:58:09.764Z,54.40
2022-08-20T21:00:37.549Z,54.62
2022-08-20T21:03:05.952Z,54.51
2022-08-20T21:05:35.276Z,54.71
2022-08-20T21:08:05.514Z,54.84
2022-08-20T21:10:36.624Z,55.13
2022-08-20T21:13:05.048Z,55.25
2022-08-20T21:15:34.019Z,55.61
2022-08-20T21:18:03.113Z,56.07
2022-08-20T21:20:31.671Z,56.31
2022-08-20T21:23:01.326Z,56.86
2022-08-20T21:25:30.968Z,57.26
2022-08-20T21:27:58.949Z,57.61
2022-08-20T21:30:27.074Z,57.84
2022-08-20T21:32:55.063Z,58.29
2022-08-20T21:35:23.357Z,58.39
2022-08-20T21:37:51.787Z,58.58
2022-08-20T21:40:21.955Z,58.86
2022-08-20T21:42:50.224Z,59.13
2022-08-20T21:45:21.298Z,59.33
2022-08-20T21:47:49.522Z,59.04
2022-08-20T21:50:18.583Z,58.82
2022-08-20T21:52:55.373Z,58.74
2022-08-20T21:55:30.661Z,59.06
2022-08-20T21:57:59.125Z,58.94
2022-08-20T22:00:49.788Z,59.11
2022-08-20T22:03:20.157Z,59.90
2022-08-20T22:05:48.463Z,60.14
2022-08-20T22:08:16.450Z,59.99
2022-08-20T22:10:46.220Z,59.89
2022-08-20T22:13:14.908Z,59.58
2022-08-20T22:15:42.801Z,60.20
2022-08-20T22:18:10.598Z,59.67
2022-08-20T22:20:38.337Z,60.16
2022-08-20T22:23:07.247Z,59.99
2022-08-20T22:25:36.277Z,59.68
2022-08-20T22:28:05.760Z,60.09
2022-08-20T22:30:41.725Z,59.96
2022-08-20T22:33:12.471Z,59.45
2022-08-20T22:35:46.161Z,59.85
2022-08-20T22:38:14.060Z,59.97
2022-08-20T22:40:42.599Z,60.25
2022-08-20T22:43:12.081Z,60.39
2022-08-20T22:45:40.273Z,60.31
2022-08-20T22:48:08.545Z,60.18
2022-08-20T22:50:37.348Z,60.52
2022-08-20T22:53:05.354Z,61.04
2022-08-20T22:55:33.019Z,61.35
2022-08-20T22:58:01.088Z,61.53
2022-08-20T23:00:30.242Z,61.49
2022-08-20T23:02:59.359Z,61.60
2022-08-20T23:05:29.251Z,61.34
2022-08-20T23:07:58.091Z,61.42
2022-08-20T23:10:27.977Z,61.14
2022-08-20T23:12:57.102Z,61.33
2022-08-20T23:15:25.839Z,60.87
2022-08-20T23:17:57.924Z,60.82
2022-08-20T23:20:25.645Z,60.99
2022-08-20T23:22:54.678Z,60.95
2022-08-20T23:25:22.643Z,60.97
2022-08-20T23:27:52.206Z,61.77
2022-08-20T23:30:22.748Z,62.32
2022-08-20T23:32:50.563Z,62.45
2022-08-20T23:35:20.504Z,62.74
2022-08-20T23:37:50.941Z,62.58
2022-08-20T23:40:27.976Z,62.54
2022-08-20T23:42:56.843Z,62.29
2022-08-20T23:45:25.697Z,61.96
2022-08-20T23:47:53.784Z,62.24
2022-08-20T23:50:25.269Z,62.51
2022-08-20T23:52:52.822Z,62.48
2022-08-20T23:55:20.910Z,63.01
2022-08-20T23:57:48.605Z,63.91
